Pagina principale
METAR-TAF:

METAR-TAF

Aeroporti :

Aeroporto di Bologna-Borgo Panigale

Bologna, Italia

latitudine: 44-32N, longitudine: 011-18E, altezza: 36 m

Osservazione

Il bollettino è stato emesso 12 minuti fa, alle 18:20 UTC
Vento 2 kt da sud
Temperature 18°C
Umidità 73%
Pressione 1006 hPa
Visibilità 10 km o più
nessuna nube inferiore a 1500 m e nessun cumulonembo

METAR: LIPE 011820Z 19002KT CAVOK 18/13 Q1006

Ora: 20:32 (18:32 UTC)

Previsione

Il bollettino è stato emesso 1 ora e 32 minuti fa, alle 17:00 UTC
Previsione valida dal 01 alle 18 UTC al 02 alle 18 UTC
Vento 10 kt da sud
Visibilità 10 km o più
Nubi sparse ad un'altezza di 5000 ft

TAF: LIPE 011700Z 0118/0218 19010KT 9999 SCT050

Osservazioni e previsioni meteorologiche di più di 4000 aeroporti (messaggi METAR e TAF).

Le stazioni disponibili sono rappresentate dai dischi gialli e rossi sulla carta.

Puntare il mouse per vedere il nome della stazione.

Clicca sopra per visualizzare le osservazioni e previsioni meteorologiche.

Per cambiare la mappa : fare clic sui pulsanti verdi con una croce nera per ingrandire, il pulsante verde con un trattino per diminuire, o sulla freccia verde per le mappe adiacenti.


METAR-TAF: